Time;durP1;ratioP1;P1;durP2;ratioP2;P2;SDS_P1;SDS_P2;PMS_P1;PMS_P2;Temp;Humidity;BMP_temperature;BMP_pressure;BME280_temperature;BME280_humidity;BME280_pressure;Samples;Min_cycle;Max_cycle;Signal;HPM_P1;HPM_P2
2022/11/04 00:01:39;;;;;;;24.42;15.20;;;10.70;99.90;;;;;;4923174;29;20087;-66
2022/11/04 00:04:05;;;;;;;25.95;15.77;;;10.80;99.90;;;;;;4902720;29;20502;-65
2022/11/04 00:06:31;;;;;;;25.83;15.25;;;10.70;99.90;;;;;;4889674;29;20051;-66
2022/11/04 00:08:58;;;;;;;27.33;16.15;;;10.70;99.90;;;;;;4923599;29;20060;-65
2022/11/04 00:14:11;;;;;;;30.67;16.55;;;10.80;99.90;;;;;;4927736;29;20102;-65
2022/11/04 00:28:41;;;;;;;33.65;16.38;;;10.70;99.90;;;;;;4914438;29;20455;-65
2022/11/04 00:30:26;;;;;;;24.33;12.63;;;10.70;99.90;;;;;;4934219;29;20119;-65
2022/11/04 00:35:36;;;;;;;22.52;12.35;;;10.60;99.90;;;;;;4922373;29;20043;-66
2022/11/04 00:38:01;;;;;;;18.75;12.65;;;10.60;99.90;;;;;;4929228;29;20046;-65
2022/11/04 00:40:27;;;;;;;22.20;12.20;;;10.50;99.90;;;;;;4930933;29;20075;-65
2022/11/04 00:42:52;;;;;;;21.23;11.70;;;10.50;99.90;;;;;;4927198;29;20846;-64
2022/11/04 00:45:18;;;;;;;16.15;10.13;;;10.50;99.90;;;;;;4924098;29;20400;-66
2022/11/04 00:47:43;;;;;;;19.95;10.23;;;10.50;99.90;;;;;;4919022;29;20448;-66
2022/11/04 00:50:09;;;;;;;16.05;8.32;;;10.60;99.90;;;;;;4916477;29;20512;-66
2022/11/04 00:52:35;;;;;;;14.50;8.52;;;10.60;99.90;;;;;;4905671;29;20559;-65
2022/11/04 00:55:00;;;;;;;11.60;7.38;;;10.60;99.90;;;;;;4911166;29;20035;-65
2022/11/04 00:57:26;;;;;;;9.63;5.80;;;10.30;99.90;;;;;;4911524;29;20157;-65
2022/11/04 00:59:51;;;;;;;8.15;5.40;;;10.30;99.90;;;;;;4930833;29;20112;-66
2022/11/04 01:02:17;;;;;;;7.55;4.70;;;10.20;99.90;;;;;;4923221;29;20056;-66
2022/11/04 01:04:42;;;;;;;8.95;4.97;;;10.30;99.90;;;;;;4909087;29;20054;-66
2022/11/04 01:07:08;;;;;;;6.38;3.90;;;10.30;99.90;;;;;;4923888;29;20040;-66
2022/11/04 01:09:34;;;;;;;6.55;3.58;;;10.30;99.90;;;;;;4911933;29;20075;-66
2022/11/04 01:11:59;;;;;;;6.03;3.17;;;10.20;99.90;;;;;;4902715;29;20047;-66
2022/11/04 01:14:25;;;;;;;6.13;3.05;;;10.10;99.90;;;;;;4909104;29;20040;-65
2022/11/04 01:16:50;;;;;;;6.38;2.95;;;10.10;99.90;;;;;;4910810;29;20050;-66
2022/11/04 01:19:16;;;;;;;5.43;2.90;;;10.20;99.90;;;;;;4897931;29;20070;-65
2022/11/04 01:21:42;;;;;;;5.97;2.95;;;10.10;99.90;;;;;;4928790;29;20572;-66
2022/11/04 01:24:07;;;;;;;5.68;2.92;;;10.10;99.90;;;;;;4927366;29;20077;-65
2022/11/04 01:26:33;;;;;;;5.38;2.40;;;10.00;99.90;;;;;;4932059;29;20051;-65
2022/11/04 01:28:59;;;;;;;4.63;2.30;;;10.00;99.90;;;;;;4929283;29;20036;-66
2022/11/04 01:31:27;;;;;;;3.55;2.08;;;10.10;99.90;;;;;;4929336;29;20155;-66
2022/11/04 01:33:54;;;;;;;3.58;1.65;;;10.00;99.90;;;;;;4908735;29;20043;-65
2022/11/04 01:36:20;;;;;;;3.08;1.50;;;10.00;99.90;;;;;;4916058;29;20035;-65
2022/11/04 01:38:47;;;;;;;2.20;1.25;;;9.90;99.90;;;;;;4910269;29;20048;-66
2022/11/04 01:41:23;;;;;;;5.35;1.45;;;10.00;99.90;;;;;;4916423;29;20080;-66
2022/11/04 01:43:57;;;;;;;2.13;0.70;;;9.80;99.90;;;;;;4926382;29;20048;-65
2022/11/04 01:46:42;;;;;;;2.42;0.90;;;10.00;99.90;;;;;;4925434;29;20054;-66
2022/11/04 01:49:22;;;;;;;2.67;0.90;;;9.90;99.90;;;;;;4926516;29;20047;-66
2022/11/04 01:51:50;;;;;;;1.17;0.80;;;9.90;99.90;;;;;;4926422;29;20047;-66
2022/11/04 01:54:16;;;;;;;1.48;0.90;;;9.80;99.90;;;;;;4925844;29;20040;-65
2022/11/04 01:56:44;;;;;;;2.38;0.80;;;9.70;99.90;;;;;;4929922;29;20032;-66
2022/11/04 01:59:19;;;;;;;1.17;0.70;;;9.90;99.90;;;;;;4911988;29;20063;-65
2022/11/04 02:01:45;;;;;;;1.67;0.80;;;9.80;99.90;;;;;;4908499;29;20051;-66
2022/11/04 02:04:24;;;;;;;1.15;0.63;;;9.80;99.90;;;;;;4923217;29;20040;-66
2022/11/04 02:07:10;;;;;;;3.17;0.70;;;9.80;99.90;;;;;;4931428;29;20534;-65
2022/11/04 02:09:37;;;;;;;1.23;0.70;;;9.80;99.90;;;;;;4924540;29;20160;-65
2022/11/04 02:14:49;;;;;;;2.85;0.85;;;9.90;99.90;;;;;;4923872;29;20039;-65
2022/11/04 02:17:18;;;;;;;3.53;0.82;;;9.70;99.90;;;;;;4922842;29;20520;-66
2022/11/04 02:19:54;;;;;;;2.35;1.00;;;9.90;99.90;;;;;;4920831;29;20048;-66
2022/11/04 02:22:22;;;;;;;3.38;1.05;;;9.80;99.90;;;;;;4895595;29;20042;-65
2022/11/04 02:25:19;;;;;;;3.60;0.93;;;9.70;99.90;;;;;;4923454;29;20103;-65
2022/11/04 02:28:24;;;;;;;2.03;0.80;;;9.90;99.90;;;;;;4929819;29;20046;-66
2022/11/04 02:31:29;;;;;;;4.15;0.90;;;9.80;99.90;;;;;;4875250;29;20049;-66
2022/11/04 02:34:20;;;;;;;3.25;1.00;;;9.80;99.90;;;;;;4925614;29;20048;-65
2022/11/04 02:37:06;;;;;;;3.22;0.82;;;9.80;99.90;;;;;;4932934;29;20484;-65
2022/11/04 02:39:43;;;;;;;2.40;0.63;;;9.80;99.90;;;;;;4908599;29;20047;-66
2022/11/04 02:42:29;;;;;;;2.30;0.52;;;9.80;99.90;;;;;;4914621;29;20429;-66
2022/11/04 02:45:26;;;;;;;3.60;0.90;;;9.70;99.90;;;;;;4923155;29;20048;-66
2022/11/04 02:47:59;;;;;;;2.22;0.40;;;9.90;99.90;;;;;;4930305;29;20044;-67
2022/11/04 02:50:50;;;;;;;1.67;0.38;;;9.80;99.90;;;;;;4916570;29;20040;-66
2022/11/04 02:53:25;;;;;;;0.80;0.40;;;9.90;99.90;;;;;;4913579;29;20032;-66
2022/11/04 02:55:54;;;;;;;1.30;0.38;;;9.80;99.90;;;;;;4915948;29;20612;-65
2022/11/04 02:58:28;;;;;;;2.80;0.50;;;9.80;99.90;;;;;;4929875;29;20059;-66
2022/11/04 03:00:55;;;;;;;1.55;0.30;;;9.80;99.90;;;;;;4930227;29;20036;-65
2022/11/04 03:03:25;;;;;;;1.75;0.40;;;9.70;99.90;;;;;;4911599;29;20448;-66
2022/11/04 03:05:53;;;;;;;1.88;0.50;;;9.70;99.90;;;;;;4901332;29;20050;-66
2022/11/04 03:08:30;;;;;;;2.38;0.40;;;9.70;99.90;;;;;;4912637;29;20036;-65
2022/11/04 03:11:23;;;;;;;1.55;0.40;;;9.80;99.90;;;;;;4912183;29;20044;-66
2022/11/04 03:14:00;;;;;;;1.48;0.50;;;9.70;99.90;;;;;;4915080;29;20043;-66
2022/11/04 03:16:37;;;;;;;5.97;0.55;;;10.00;99.90;;;;;;4930435;29;20043;-66
2022/11/04 03:19:11;;;;;;;4.07;0.60;;;9.80;99.90;;;;;;4929584;29;20095;-67
2022/11/04 03:21:42;;;;;;;0.82;0.40;;;9.90;99.90;;;;;;4915771;29;20059;-67
2022/11/04 03:24:08;;;;;;;2.55;0.80;;;9.90;99.90;;;;;;4926008;29;20087;-66
2022/11/04 03:26:50;;;;;;;3.63;0.80;;;9.70;99.90;;;;;;4912172;29;20044;-67
2022/11/04 03:29:31;;;;;;;4.03;1.50;;;9.80;99.90;;;;;;4932501;29;21755;-67
2022/11/04 03:32:05;;;;;;;10.13;1.80;;;9.80;99.90;;;;;;4916283;29;20492;-67
2022/11/04 03:34:31;;;;;;;4.18;1.90;;;9.70;99.90;;;;;;4914174;29;20063;-67
2022/11/04 03:36:57;;;;;;;5.40;2.08;;;9.90;99.90;;;;;;4918095;29;20519;-67
2022/11/04 03:39:23;;;;;;;7.22;2.45;;;9.90;99.90;;;;;;4929646;29;20042;-69
2022/11/04 03:41:54;;;;;;;5.32;2.10;;;9.70;99.90;;;;;;4917168;29;20048;-68
2022/11/04 03:44:19;;;;;;;4.50;2.08;;;9.90;99.90;;;;;;4911611;29;20043;-69
2022/11/04 03:46:45;;;;;;;3.97;2.00;;;9.80;99.90;;;;;;4909522;29;20047;-68
2022/11/04 03:49:11;;;;;;;4.82;1.85;;;9.80;99.90;;;;;;4911750;29;20049;-69
2022/11/04 03:51:37;;;;;;;2.97;1.73;;;9.70;99.90;;;;;;4914532;29;20027;-66
2022/11/04 03:54:04;;;;;;;4.28;2.42;;;9.60;99.90;;;;;;4926513;29;20036;-68
2022/11/04 03:56:58;;;;;;;7.90;2.63;;;9.80;99.90;;;;;;4910965;29;20099;-69
2022/11/04 03:59:41;;;;;;;6.28;2.08;;;9.70;99.90;;;;;;4926033;29;20121;-69
2022/11/04 04:02:18;;;;;;;4.35;1.75;;;9.80;99.90;;;;;;4905872;29;20048;-67
2022/11/04 04:04:49;;;;;;;7.47;1.65;;;9.70;99.90;;;;;;4912829;29;20036;-70
2022/11/04 04:07:33;;;;;;;4.88;1.73;;;9.70;99.90;;;;;;4930242;29;20044;-67
2022/11/04 04:10:38;;;;;;;4.93;1.30;;;9.70;99.90;;;;;;4925224;29;20035;-67
2022/11/04 04:13:17;;;;;;;4.93;0.60;;;9.60;99.90;;;;;;4920777;29;20130;-67
2022/11/04 04:16:01;;;;;;;0.75;0.57;;;9.50;99.90;;;;;;4927047;29;20035;-66
2022/11/04 04:18:43;;;;;;;3.58;0.60;;;9.50;99.90;;;;;;4928154;29;20051;-65
2022/11/04 04:21:14;;;;;;;2.83;0.50;;;9.40;99.90;;;;;;4931567;29;20513;-66
2022/11/04 04:29:14;;;;;;;3.25;0.63;;;9.40;99.90;;;;;;4930399;29;20051;-66
2022/11/04 04:31:49;;;;;;;2.58;0.40;;;9.30;99.90;;;;;;4928485;29;20503;-65
2022/11/04 04:34:16;;;;;;;1.83;0.60;;;9.30;99.90;;;;;;4928656;29;20047;-66
2022/11/04 04:36:50;;;;;;;1.83;0.52;;;9.40;99.90;;;;;;4929490;29;20048;-66
2022/11/04 04:45:02;;;;;;;1.65;0.40;;;9.30;99.90;;;;;;4930107;29;20055;-67
2022/11/04 04:47:34;;;;;;;1.42;0.43;;;9.30;99.90;;;;;;4914025;29;20079;-67
2022/11/04 04:50:01;;;;;;;1.33;0.43;;;9.30;99.90;;;;;;4929862;29;20046;-66
2022/11/04 04:52:35;;;;;;;2.03;0.30;;;9.30;99.90;;;;;;4930446;29;20114;-66
2022/11/04 04:55:01;;;;;;;2.45;0.40;;;9.20;99.90;;;;;;4929077;29;20067;-66
2022/11/04 04:57:26;;;;;;;1.00;0.50;;;9.40;99.90;;;;;;4933705;29;20562;-65
2022/11/04 04:59:52;;;;;;;0.88;0.40;;;9.20;99.90;;;;;;4928678;29;20476;-66
2022/11/04 05:02:17;;;;;;;0.45;0.32;;;9.20;99.90;;;;;;4928205;29;20043;-66
2022/11/04 05:04:43;;;;;;;3.10;0.47;;;9.50;99.90;;;;;;4930162;29;20367;-66
2022/11/04 05:07:09;;;;;;;3.08;0.52;;;9.40;99.90;;;;;;4927336;29;20044;-67
2022/11/04 05:09:35;;;;;;;2.17;0.40;;;9.30;99.90;;;;;;4925674;29;20043;-66
2022/11/04 05:12:00;;;;;;;0.60;0.40;;;9.40;99.90;;;;;;4924541;29;21910;-67
2022/11/04 05:14:26;;;;;;;2.13;0.32;;;9.40;99.90;;;;;;4926069;29;20040;-67
2022/11/04 05:16:52;;;;;;;1.02;0.40;;;9.30;99.90;;;;;;4928031;29;20044;-66
2022/11/04 05:19:17;;;;;;;0.90;0.43;;;9.30;99.90;;;;;;4928152;29;20060;-66
2022/11/04 05:21:43;;;;;;;2.10;0.52;;;9.40;99.90;;;;;;4929026;29;20078;-66
2022/11/04 05:24:09;;;;;;;1.90;0.40;;;9.30;99.90;;;;;;4927983;29;20063;-67
2022/11/04 05:26:35;;;;;;;0.80;0.38;;;9.30;99.90;;;;;;4927984;29;20054;-66
2022/11/04 05:29:00;;;;;;;3.78;0.50;;;9.30;99.90;;;;;;4922434;29;20048;-66
2022/11/04 05:31:26;;;;;;;0.95;0.40;;;9.20;99.90;;;;;;4930697;29;20066;-66
2022/11/04 05:33:52;;;;;;;1.33;0.52;;;9.20;99.90;;;;;;4926009;29;20152;-66
2022/11/04 05:36:18;;;;;;;2.13;0.57;;;9.20;99.90;;;;;;4914524;29;20079;-66
2022/11/04 05:38:49;;;;;;;0.95;0.50;;;9.10;99.90;;;;;;4910993;29;20547;-66
2022/11/04 05:41:24;;;;;;;2.53;0.50;;;9.10;99.90;;;;;;4926291;29;20078;-66
2022/11/04 05:43:51;;;;;;;4.05;0.52;;;9.10;99.90;;;;;;4925443;29;20130;-66
2022/11/04 05:46:17;;;;;;;1.42;0.55;;;9.00;99.90;;;;;;4926765;29;20040;-65
2022/11/04 05:48:42;;;;;;;2.63;0.80;;;9.10;99.90;;;;;;4907095;29;20046;-66
2022/11/04 05:51:15;;;;;;;2.78;0.60;;;9.00;99.90;;;;;;4915894;29;20142;-66
2022/11/04 05:53:41;;;;;;;1.98;0.55;;;9.00;99.90;;;;;;4928444;29;20036;-66
2022/11/04 05:56:07;;;;;;;4.80;1.00;;;8.90;99.90;;;;;;4927375;29;20362;-66
2022/11/04 05:58:33;;;;;;;2.08;0.50;;;9.00;99.90;;;;;;4928084;29;20066;-65
2022/11/04 06:01:11;;;;;;;1.58;0.60;;;9.00;99.90;;;;;;4896847;29;20043;-66
2022/11/04 06:03:36;;;;;;;2.55;0.60;;;8.80;99.90;;;;;;4908343;29;20139;-66
2022/11/04 06:06:02;;;;;;;6.15;0.80;;;9.00;99.90;;;;;;4930929;29;20071;-66
2022/11/04 06:08:29;;;;;;;4.03;1.02;;;8.90;99.90;;;;;;4925668;29;20052;-66
2022/11/04 06:10:54;;;;;;;3.38;0.82;;;8.70;99.90;;;;;;4930864;29;20050;-66
2022/11/04 06:13:20;;;;;;;1.73;0.60;;;8.70;99.90;;;;;;4925819;29;20365;-66
2022/11/04 06:15:45;;;;;;;4.10;1.00;;;8.70;99.90;;;;;;4927872;29;20106;-66
2022/11/04 06:18:11;;;;;;;2.35;0.68;;;8.70;99.90;;;;;;4929479;29;20047;-65
2022/11/04 06:20:36;;;;;;;3.10;0.90;;;8.70;99.90;;;;;;4932463;29;20039;-66
2022/11/04 06:23:02;;;;;;;3.58;1.00;;;8.60;99.90;;;;;;4930271;29;20042;-65
2022/11/04 06:25:27;;;;;;;5.13;0.90;;;8.60;99.90;;;;;;4918234;29;20047;-66
2022/11/04 06:27:53;;;;;;;3.58;1.00;;;8.50;99.90;;;;;;4925940;29;20412;-65
2022/11/04 06:30:20;;;;;;;4.50;0.70;;;8.60;99.90;;;;;;4924761;29;20495;-65
2022/11/04 06:32:46;;;;;;;1.98;0.80;;;8.60;99.90;;;;;;4927682;29;20031;-65
2022/11/04 06:35:12;;;;;;;2.30;0.70;;;8.60;99.90;;;;;;4927803;29;20054;-65
2022/11/04 06:37:37;;;;;;;1.88;0.70;;;8.40;99.90;;;;;;4934140;29;20391;-65
2022/11/04 06:40:03;;;;;;;2.33;0.60;;;8.60;99.90;;;;;;4913776;29;20050;-65
2022/11/04 06:42:29;;;;;;;2.63;0.90;;;8.50;99.90;;;;;;4933126;29;21953;-65
2022/11/04 06:44:54;;;;;;;2.05;0.90;;;8.50;99.90;;;;;;4922845;29;20171;-66
2022/11/04 06:47:20;;;;;;;2.83;0.75;;;8.30;99.90;;;;;;4931843;29;20134;-65
2022/11/04 06:49:45;;;;;;;4.05;0.80;;;8.30;99.90;;;;;;4928829;29;20090;-66
2022/11/04 06:52:11;;;;;;;3.83;0.60;;;8.20;99.90;;;;;;4931235;29;20059;-65
2022/11/04 06:54:36;;;;;;;1.67;0.65;;;8.20;99.90;;;;;;4929293;29;20063;-65
2022/11/04 06:57:02;;;;;;;4.40;0.80;;;8.40;99.90;;;;;;4931450;29;20047;-65
2022/11/04 06:59:28;;;;;;;1.33;0.57;;;8.30;99.90;;;;;;4932259;29;20036;-65
2022/11/04 07:01:53;;;;;;;2.90;0.70;;;8.10;99.90;;;;;;4927708;29;20048;-65
2022/11/04 07:04:19;;;;;;;4.28;0.75;;;8.10;99.90;;;;;;4913028;29;20433;-65
2022/11/04 07:06:44;;;;;;;3.00;0.80;;;8.20;99.90;;;;;;4932594;29;20070;-65
2022/11/04 07:09:12;;;;;;;3.10;0.77;;;8.20;99.90;;;;;;4931469;29;20047;-66
2022/11/04 07:11:38;;;;;;;2.83;0.73;;;8.30;99.90;;;;;;4932304;29;20430;-66
2022/11/04 07:14:03;;;;;;;1.25;0.60;;;8.20;99.90;;;;;;4911363;29;20054;-65
2022/11/04 07:16:29;;;;;;;1.92;0.57;;;8.00;99.90;;;;;;4925985;29;20404;-65
2022/11/04 07:18:55;;;;;;;5.47;0.90;;;8.30;99.90;;;;;;4927453;29;20047;-65
2022/11/04 07:21:21;;;;;;;2.13;0.60;;;8.20;99.90;;;;;;4917126;29;20062;-65
2022/11/04 07:23:46;;;;;;;3.30;0.80;;;8.40;99.90;;;;;;4933124;29;20055;-66
2022/11/04 07:26:12;;;;;;;3.00;0.93;;;8.20;99.90;;;;;;4925904;29;20038;-66
2022/11/04 07:28:38;;;;;;;1.95;0.90;;;8.40;99.90;;;;;;4930554;29;20036;-65
2022/11/04 07:31:05;;;;;;;5.13;1.10;;;8.30;99.90;;;;;;4927938;29;20047;-65
2022/11/04 07:33:32;;;;;;;4.25;1.42;;;8.30;99.90;;;;;;4926386;29;20048;-65
2022/11/04 07:36:01;;;;;;;3.25;1.20;;;8.60;99.90;;;;;;4925505;29;20761;-66
2022/11/04 07:38:27;;;;;;;4.78;1.40;;;8.40;99.90;;;;;;4916834;29;20470;-65
2022/11/04 07:40:53;;;;;;;4.65;1.50;;;8.60;99.90;;;;;;4923358;29;20139;-66
2022/11/04 07:43:18;;;;;;;2.33;1.55;;;8.40;99.90;;;;;;4928348;29;20098;-66
2022/11/04 07:45:44;;;;;;;7.70;1.70;;;8.50;99.90;;;;;;4932637;29;20396;-66
2022/11/04 07:48:09;;;;;;;5.32;1.85;;;8.70;99.90;;;;;;4922733;29;20048;-66
2022/11/04 07:50:39;;;;;;;4.82;1.40;;;8.50;99.90;;;;;;4926460;29;20036;-66
2022/11/04 07:53:04;;;;;;;4.93;1.98;;;8.60;99.90;;;;;;4919764;29;20027;-66
2022/11/04 07:55:30;;;;;;;4.93;2.10;;;8.60;99.90;;;;;;4920600;29;20040;-66
2022/11/04 07:57:56;;;;;;;7.82;1.67;;;8.50;99.90;;;;;;4922096;29;20555;-66
2022/11/04 08:00:21;;;;;;;4.40;1.67;;;8.50;99.90;;;;;;4930463;29;20135;-66
2022/11/04 08:02:47;;;;;;;4.90;1.85;;;8.60;99.90;;;;;;4925262;29;20048;-66
2022/11/04 08:05:13;;;;;;;4.05;1.55;;;8.80;99.90;;;;;;4933384;29;20043;-66
2022/11/04 08:07:39;;;;;;;5.78;1.65;;;8.80;99.90;;;;;;4929586;29;20695;-66
2022/11/04 08:10:05;;;;;;;4.28;1.55;;;8.80;99.90;;;;;;4929690;29;20070;-67
2022/11/04 08:12:31;;;;;;;3.95;1.55;;;8.70;99.90;;;;;;4923300;29;20043;-66
2022/11/04 08:15:00;;;;;;;3.13;1.45;;;8.70;99.90;;;;;;4915353;29;20472;-66
2022/11/04 08:17:26;;;;;;;4.18;1.58;;;8.90;99.90;;;;;;4930699;29;20043;-66
2022/11/04 08:19:51;;;;;;;2.50;1.42;;;8.80;99.90;;;;;;4929222;29;20035;-66
2022/11/04 08:22:17;;;;;;;3.22;1.20;;;8.90;99.90;;;;;;4928223;29;20152;-67
2022/11/04 08:24:46;;;;;;;5.47;1.63;;;9.00;99.90;;;;;;4930680;29;20040;-67
2022/11/04 08:27:11;;;;;;;3.70;1.58;;;9.00;99.90;;;;;;4931601;29;20055;-67
2022/11/04 08:29:37;;;;;;;3.83;1.55;;;9.10;99.90;;;;;;4923625;29;20035;-66
2022/11/04 08:32:03;;;;;;;4.72;1.60;;;9.20;99.90;;;;;;4930689;29;20488;-67
2022/11/04 08:34:28;;;;;;;4.13;1.13;;;9.20;99.90;;;;;;4931703;29;20613;-67
2022/11/04 08:36:56;;;;;;;5.63;1.33;;;9.30;99.90;;;;;;4926106;29;20062;-67
2022/11/04 08:39:23;;;;;;;3.78;1.38;;;9.20;99.90;;;;;;4923106;29;20043;-67
2022/11/04 08:41:49;;;;;;;3.35;1.10;;;9.40;99.90;;;;;;4923149;29;20051;-67
2022/11/04 08:44:15;;;;;;;1.90;0.82;;;9.30;99.90;;;;;;4933528;29;20040;-67
2022/11/04 08:46:43;;;;;;;2.30;1.10;;;9.50;99.90;;;;;;4954409;29;20051;-67
2022/11/04 08:49:09;;;;;;;2.45;0.80;;;9.50;99.90;;;;;;4925456;29;20051;-68
2022/11/04 08:51:36;;;;;;;2.00;1.08;;;9.50;99.90;;;;;;4915961;29;20044;-68
2022/11/04 08:54:03;;;;;;;3.20;1.10;;;9.40;99.90;;;;;;4935257;29;20089;-67
2022/11/04 08:56:32;;;;;;;1.92;1.23;;;9.70;99.90;;;;;;4910667;29;20040;-67
2022/11/04 08:58:58;;;;;;;3.05;0.90;;;9.70;99.90;;;;;;4932543;29;20171;-67
2022/11/04 09:01:25;;;;;;;2.40;1.15;;;9.80;99.90;;;;;;4915369;29;20122;-67
2022/11/04 09:03:51;;;;;;;3.60;0.80;;;9.80;99.90;;;;;;4932557;29;20151;-68
2022/11/04 09:06:23;;;;;;;2.90;0.88;;;9.70;99.90;;;;;;4935101;29;20130;-67
2022/11/04 09:08:49;;;;;;;1.67;0.73;;;9.80;99.90;;;;;;4917295;29;20044;-67
2022/11/04 09:11:15;;;;;;;3.03;1.00;;;9.90;99.90;;;;;;4929491;29;20202;-67
2022/11/04 09:13:42;;;;;;;2.00;0.80;;;9.80;99.90;;;;;;4913234;29;20095;-67
2022/11/04 09:16:10;;;;;;;1.70;0.90;;;9.90;99.90;;;;;;4934696;29;20122;-67
2022/11/04 09:18:36;;;;;;;3.10;0.98;;;10.00;99.90;;;;;;4933594;29;20047;-66
2022/11/04 09:21:04;;;;;;;2.67;1.00;;;10.00;99.90;;;;;;4933006;29;20405;-67
2022/11/04 09:23:29;;;;;;;2.92;0.82;;;9.80;99.90;;;;;;4930737;29;20052;-68
2022/11/04 09:25:57;;;;;;;2.78;1.08;;;9.80;99.90;;;;;;4935028;29;20046;-67
2022/11/04 09:28:23;;;;;;;2.00;0.93;;;9.90;99.90;;;;;;4932496;29;20051;-67
2022/11/04 09:30:49;;;;;;;1.58;0.80;;;10.00;99.90;;;;;;4917386;29;20054;-67
2022/11/04 09:33:15;;;;;;;1.92;1.00;;;10.10;99.90;;;;;;4929447;29;20126;-67
2022/11/04 09:35:41;;;;;;;4.35;1.23;;;10.10;99.90;;;;;;4901089;29;20048;-67
2022/11/04 09:38:07;;;;;;;7.13;1.60;;;10.20;99.90;;;;;;4933046;29;20411;-67
2022/11/04 09:40:35;;;;;;;3.78;1.58;;;10.20;99.90;;;;;;4931575;29;20118;-67
2022/11/04 09:43:09;;;;;;;3.13;1.48;;;10.30;99.90;;;;;;4932719;29;20444;-67
2022/11/04 09:45:39;;;;;;;2.33;1.42;;;10.30;99.90;;;;;;4936413;29;20118;-67
2022/11/04 09:48:10;;;;;;;2.45;1.30;;;10.40;99.90;;;;;;4932765;29;20054;-67
2022/11/04 09:50:52;;;;;;;3.33;1.50;;;10.30;99.90;;;;;;4935302;29;20043;-67
2022/11/04 09:53:43;;;;;;;3.78;1.50;;;10.30;99.90;;;;;;4915375;29;20044;-67
2022/11/04 09:56:19;;;;;;;4.45;1.50;;;10.20;99.90;;;;;;4919168;29;20093;-67
2022/11/04 09:58:44;;;;;;;3.63;1.52;;;10.40;99.90;;;;;;4915765;29;20389;-67
2022/11/04 10:01:30;;;;;;;4.68;2.00;;;10.40;99.90;;;;;;4911457;29;20059;-67
2022/11/04 10:04:01;;;;;;;3.30;2.08;;;10.60;99.90;;;;;;4927011;29;20051;-67
2022/11/04 10:06:44;;;;;;;4.45;2.47;;;10.80;99.90;;;;;;4918716;29;20052;-67
2022/11/04 10:09:20;;;;;;;4.93;2.75;;;10.90;99.90;;;;;;4932645;29;20043;-67
2022/11/04 10:11:54;;;;;;;5.57;3.78;;;10.90;99.90;;;;;;4918659;29;20044;-67
2022/11/04 10:14:58;;;;;;;6.25;3.47;;;10.80;99.90;;;;;;4918548;29;20051;-67
2022/11/04 10:17:46;;;;;;;7.30;3.83;;;10.70;99.90;;;;;;4893460;29;20138;-67
2022/11/04 10:20:18;;;;;;;7.32;4.05;;;10.60;99.90;;;;;;4921102;29;20163;-68
2022/11/04 10:23:01;;;;;;;4.97;3.85;;;10.70;99.90;;;;;;4910249;29;20052;-68
2022/11/04 10:25:41;;;;;;;8.07;4.70;;;10.80;99.90;;;;;;4904874;29;20048;-68
2022/11/04 10:28:13;;;;;;;7.90;4.88;;;10.90;99.90;;;;;;4925744;29;20047;-68
2022/11/04 10:30:41;;;;;;;7.03;4.45;;;11.10;99.90;;;;;;4918970;29;20051;-67
2022/11/04 10:33:23;;;;;;;8.18;4.82;;;11.20;99.90;;;;;;4929908;29;20044;-68
2022/11/04 10:36:01;;;;;;;8.45;5.45;;;11.30;99.90;;;;;;4924231;29;20043;-67
2022/11/04 10:38:38;;;;;;;7.60;4.50;;;11.20;99.90;;;;;;4913726;29;20048;-67
2022/11/04 10:41:28;;;;;;;10.63;5.20;;;11.10;99.90;;;;;;4920739;29;20040;-67
2022/11/04 10:44:02;;;;;;;8.05;5.13;;;10.80;99.90;;;;;;4912498;29;20536;-68
2022/11/04 10:46:51;;;;;;;8.57;5.18;;;10.90;99.90;;;;;;4931872;29;20086;-68
2022/11/04 10:49:39;;;;;;;7.65;5.53;;;10.90;99.90;;;;;;4910258;29;20472;-67
2022/11/04 10:52:06;;;;;;;8.70;5.05;;;11.10;99.90;;;;;;4928805;29;20047;-68
2022/11/04 10:54:45;;;;;;;8.85;5.43;;;11.20;99.90;;;;;;4933128;29;20043;-67
2022/11/04 10:57:15;;;;;;;8.43;5.82;;;11.40;99.90;;;;;;4937270;29;20048;-67
2022/11/04 10:59:46;;;;;;;;;;;11.50;99.90;;;;;;4916972;29;20055;-68
2022/11/04 11:02:12;;;;;;;9.15;5.40;;;11.50;99.90;;;;;;4922626;29;19923;-67
2022/11/04 11:04:39;;;;;;;8.43;5.15;;;11.40;99.90;;;;;;4929870;29;20035;-69
2022/11/04 11:07:09;;;;;;;9.43;5.75;;;11.40;99.90;;;;;;4931208;29;20051;-68
2022/11/04 11:09:59;;;;;;;6.65;5.13;;;11.50;99.90;;;;;;4915886;29;20051;-68
2022/11/04 11:12:39;;;;;;;9.50;4.45;;;11.50;99.90;;;;;;4925449;29;21027;-68
2022/11/04 11:15:38;;;;;;;6.90;4.80;;;11.30;99.90;;;;;;4934714;29;20431;-68
2022/11/04 11:18:15;;;;;;;7.30;4.45;;;11.20;99.90;;;;;;4907267;29;20083;-68
2022/11/04 11:20:47;;;;;;;8.65;4.68;;;11.20;99.90;;;;;;4920040;29;20047;-68
2022/11/04 11:23:41;;;;;;;7.20;3.95;;;11.30;99.90;;;;;;4916042;29;20094;-67
2022/11/04 11:26:12;;;;;;;7.15;4.18;;;11.20;99.90;;;;;;4914543;29;20048;-68
2022/11/04 11:28:39;;;;;;;8.75;3.67;;;11.00;99.90;;;;;;4934998;29;20047;-67
2022/11/04 11:31:12;;;;;;;6.93;4.22;;;10.90;99.90;;;;;;4932356;29;20035;-66
2022/11/04 11:33:47;;;;;;;7.63;4.75;;;11.00;99.90;;;;;;4915466;29;20098;-68
2022/11/04 11:36:17;;;;;;;8.32;4.47;;;11.00;99.90;;;;;;4927926;29;20400;-67
2022/11/04 11:38:57;;;;;;;10.10;4.32;;;11.00;99.90;;;;;;4928769;29;20040;-67
2022/11/04 11:41:30;;;;;;;9.23;4.28;;;11.10;99.90;;;;;;4928141;29;20050;-67
2022/11/04 11:44:16;;;;;;;11.93;4.20;;;11.10;99.90;;;;;;4928482;29;20082;-66
2022/11/04 11:46:54;;;;;;;7.20;3.45;;;11.20;99.90;;;;;;4935825;29;20409;-66
2022/11/04 11:49:27;;;;;;;9.15;4.00;;;11.20;99.90;;;;;;4911928;29;20044;-66
2022/11/04 11:51:53;;;;;;;8.23;3.67;;;11.20;99.90;;;;;;4934108;29;20046;-67
2022/11/04 11:54:24;;;;;;;6.82;3.78;;;11.40;99.90;;;;;;4914010;29;20052;-67
2022/11/04 11:57:07;;;;;;;7.60;4.55;;;11.50;99.90;;;;;;4930729;29;20070;-66
2022/11/04 11:59:52;;;;;;;8.05;3.75;;;11.60;99.90;;;;;;4914919;29;20067;-67
2022/11/04 12:02:24;;;;;;;8.00;4.00;;;11.50;99.90;;;;;;4932018;29;20054;-66
2022/11/04 12:04:50;;;;;;;9.13;4.25;;;11.50;99.90;;;;;;4916995;29;20043;-66
2022/11/04 12:07:19;;;;;;;7.13;4.07;;;11.60;99.90;;;;;;4933393;29;20043;-66
2022/11/04 12:10:03;;;;;;;7.00;3.63;;;11.70;99.90;;;;;;4928908;29;20032;-67
2022/11/04 12:13:06;;;;;;;5.32;3.05;;;11.80;99.90;;;;;;4919963;29;20878;-66
2022/11/04 12:15:42;;;;;;;7.43;3.35;;;11.90;99.90;;;;;;4920833;29;20134;-66
2022/11/04 12:18:33;;;;;;;6.22;3.22;;;12.00;99.90;;;;;;4927450;29;20040;-66
2022/11/04 12:21:10;;;;;;;7.00;3.20;;;12.20;99.90;;;;;;4932051;29;20127;-65
2022/11/04 12:24:18;;;;;;;5.15;2.55;;;12.30;99.90;;;;;;4931514;29;20123;-66
2022/11/04 12:27:11;;;;;;;5.15;2.83;;;12.40;99.90;;;;;;4895332;29;20081;-66
2022/11/04 12:29:55;;;;;;;5.57;2.05;;;12.30;99.90;;;;;;4924639;29;20043;-67
2022/11/04 12:32:36;;;;;;;5.03;1.85;;;12.20;99.90;;;;;;4887684;29;20036;-65
2022/11/04 12:35:30;;;;;;;6.65;2.05;;;12.00;99.90;;;;;;4929669;29;20051;-66
2022/11/04 12:38:34;;;;;;;4.75;1.90;;;11.90;99.90;;;;;;4927794;29;20361;-66
2022/11/04 12:41:20;;;;;;;5.75;1.40;;;11.80;99.90;;;;;;4932263;29;20106;-66
2022/11/04 12:44:00;;;;;;;7.82;1.40;;;11.70;99.90;;;;;;4928203;29;20050;-66
2022/11/04 12:46:39;;;;;;;3.33;1.13;;;11.70;99.90;;;;;;4932623;29;20048;-65
2022/11/04 12:49:23;;;;;;;3.60;1.15;;;11.60;99.90;;;;;;4930705;29;20048;-65
2022/11/04 12:52:09;;;;;;;6.15;1.23;;;11.50;99.90;;;;;;4932599;29;20046;-66
2022/11/04 12:55:04;;;;;;;3.08;1.10;;;11.40;99.90;;;;;;4928027;29;20049;-64
2022/11/04 12:58:11;;;;;;;6.10;1.02;;;11.30;99.90;;;;;;4927280;29;20059;-65
2022/11/04 13:00:39;;;;;;;4.55;1.00;;;11.20;99.90;;;;;;4913709;29;20052;-65
2022/11/04 13:03:29;;;;;;;3.78;1.00;;;11.10;99.90;;;;;;4914115;29;20680;-65
2022/11/04 13:06:00;;;;;;;2.95;0.82;;;11.10;99.90;;;;;;4933627;29;20043;-65
2022/11/04 13:08:41;;;;;;;3.45;0.98;;;11.00;99.90;;;;;;4930168;29;20112;-65
2022/11/04 13:11:42;;;;;;;2.28;0.60;;;10.90;99.90;;;;;;4933916;29;20523;-65
2022/11/04 13:14:15;;;;;;;;;;;10.80;99.90;;;;;;4930204;29;20366;-65
2022/11/04 13:16:43;;;;;;;3.53;1.10;;;10.80;99.90;;;;;;4927237;29;19923;-65
2022/11/04 13:19:33;;;;;;;3.72;0.98;;;10.80;99.90;;;;;;4925724;29;20040;-65
2022/11/04 13:22:06;;;;;;;2.28;0.70;;;10.70;99.90;;;;;;4919073;29;20048;-65
2022/11/04 13:24:36;;;;;;;3.67;0.90;;;10.70;99.90;;;;;;4914964;29;20091;-64
2022/11/04 13:27:12;;;;;;;5.75;1.10;;;10.60;99.90;;;;;;4927484;29;20063;-65
2022/11/04 13:29:39;;;;;;;1.55;0.60;;;10.50;99.90;;;;;;4931128;29;20055;-65
2022/11/04 13:32:13;;;;;;;2.10;0.65;;;10.50;99.90;;;;;;4930692;29;20550;-65
2022/11/04 13:34:44;;;;;;;2.67;0.73;;;10.40;99.90;;;;;;4927498;29;20048;-65
2022/11/04 13:37:32;;;;;;;3.03;0.77;;;10.40;99.90;;;;;;4932443;29;20055;-65
2022/11/04 13:40:10;;;;;;;4.25;0.90;;;10.30;99.90;;;;;;4928570;29;20126;-64
2022/11/04 13:42:46;;;;;;;4.35;0.70;;;10.30;99.90;;;;;;4929156;29;20044;-65
2022/11/04 13:45:14;;;;;;;1.95;0.80;;;10.40;99.90;;;;;;4930850;29;20051;-65
2022/11/04 13:47:49;;;;;;;3.53;0.80;;;10.40;99.90;;;;;;4930234;29;20055;-65
2022/11/04 13:50:57;;;;;;;2.50;0.85;;;10.40;99.90;;;;;;4928783;29;20098;-65